Time;durP1;ratioP1;P1;durP2;ratioP2;P2;SDS_P1;SDS_P2;PMS_P1;PMS_P2;Temp;Humidity;BMP_temperature;BMP_pressure;BME280_temperature;BME280_humidity;BME280_pressure;Samples;Min_cycle;Max_cycle;Signal;HPM_P1;HPM_P2
2022/09/01 00:01:20;;;;;;;3.28;1.90;;;;;;;;;;5074781;28;20265;-46
2022/09/01 00:03:47;;;;;;;5.03;2.15;;;;;;;;;;5075135;28;20290;-48
2022/09/01 00:06:21;;;;;;;3.08;1.63;;;;;;;;;;5075071;28;20216;-47
2022/09/01 00:08:53;;;;;;;3.50;2.00;;;;;;;;;;5074564;28;20215;-47
2022/09/01 00:11:22;;;;;;;4.20;2.03;;;;;;;;;;5074804;28;20237;-49
2022/09/01 00:13:49;;;;;;;2.42;1.95;;;;;;;;;;5074750;28;20207;-46
2022/09/01 00:16:17;;;;;;;5.00;1.60;;;;;;;;;;5074828;28;20203;-47
2022/09/01 00:18:50;;;;;;;3.22;2.08;;;;;;;;;;5074775;28;20229;-50
2022/09/01 00:21:19;;;;;;;2.55;1.67;;;;;;;;;;5057503;28;20195;-47
2022/09/01 00:23:46;;;;;;;3.13;1.80;;;;;;;;;;5074875;28;20211;-50
2022/09/01 00:26:14;;;;;;;3.88;1.98;;;;;;;;;;5074441;28;20268;-47
2022/09/01 00:28:41;;;;;;;4.07;1.92;;;;;;;;;;5074802;28;20223;-46
2022/09/01 00:31:09;;;;;;;3.80;2.00;;;;;;;;;;5057722;28;20207;-47
2022/09/01 00:33:37;;;;;;;4.30;1.70;;;;;;;;;;5074632;28;20203;-47
2022/09/01 00:36:04;;;;;;;6.85;2.22;;;;;;;;;;5074565;28;20528;-47
2022/09/01 00:38:32;;;;;;;2.15;1.63;;;;;;;;;;5074755;28;20261;-47
2022/09/01 00:40:59;;;;;;;4.95;1.98;;;;;;;;;;5074481;28;20203;-48
2022/09/01 00:43:51;;;;;;;5.13;1.98;;;;;;;;;;5057420;28;20215;-46
2022/09/01 00:46:22;;;;;;;2.78;1.88;;;;;;;;;;5074533;28;20211;-48
2022/09/01 00:48:58;;;;;;;3.38;2.15;;;;;;;;;;5074405;28;20317;-47
2022/09/01 00:51:26;;;;;;;3.78;1.80;;;;;;;;;;5056903;28;20525;-46
2022/09/01 00:53:54;;;;;;;7.72;2.00;;;;;;;;;;5056893;28;20223;-46
2022/09/01 00:56:22;;;;;;;2.55;1.70;;;;;;;;;;5057790;28;20199;-46
2022/09/01 00:58:50;;;;;;;2.58;2.25;;;;;;;;;;5060568;28;20668;-46
2022/09/01 01:01:18;;;;;;;3.20;1.92;;;;;;;;;;5078011;28;20203;-48
2022/09/01 01:03:45;;;;;;;5.70;1.98;;;;;;;;;;5060538;28;20213;-46
2022/09/01 01:06:15;;;;;;;3.15;1.70;;;;;;;;;;5078072;28;20230;-48
2022/09/01 01:08:56;;;;;;;5.53;1.80;;;;;;;;;;5060323;28;20558;-46
2022/09/01 01:11:26;;;;;;;2.90;1.77;;;;;;;;;;5078330;28;20275;-46
2022/09/01 01:13:54;;;;;;;4.47;1.63;;;;;;;;;;5078172;28;20306;-47
2022/09/01 01:16:23;;;;;;;3.55;1.80;;;;;;;;;;5060306;28;20203;-47
2022/09/01 01:18:51;;;;;;;2.17;1.80;;;;;;;;;;5060280;28;20226;-48
2022/09/01 01:24:22;;;;;;;4.28;2.20;;;;;;;;;;5060070;28;20207;-48
2022/09/01 01:26:49;;;;;;;3.10;2.10;;;;;;;;;;5060127;28;20635;-48
2022/09/01 01:29:17;;;;;;;2.90;1.73;;;;;;;;;;5060117;28;20293;-46
2022/09/01 01:31:48;;;;;;;3.90;1.95;;;;;;;;;;5060105;28;20203;-46
2022/09/01 01:34:17;;;;;;;5.45;2.25;;;;;;;;;;5060059;28;20600;-47
2022/09/01 01:36:47;;;;;;;3.05;2.10;;;;;;;;;;5077457;28;20203;-47
2022/09/01 01:39:18;;;;;;;2.75;2.00;;;;;;;;;;5059891;28;20257;-47
2022/09/01 01:41:47;;;;;;;3.28;2.05;;;;;;;;;;5059983;28;20207;-46
2022/09/01 01:44:18;;;;;;;4.60;2.00;;;;;;;;;;5059901;28;20254;-48
2022/09/01 01:46:49;;;;;;;9.35;2.35;;;;;;;;;;5059889;28;20204;-49
2022/09/01 01:49:19;;;;;;;3.40;1.85;;;;;;;;;;5043510;28;20227;-47
2022/09/01 01:51:56;;;;;;;2.88;1.67;;;;;;;;;;5059675;28;20214;-46
2022/09/01 01:54:30;;;;;;;2.40;1.83;;;;;;;;;;5035432;28;20660;-48
2022/09/01 01:56:58;;;;;;;2.78;1.77;;;;;;;;;;5019027;28;20223;-47
2022/09/01 01:59:28;;;;;;;3.03;1.70;;;;;;;;;;5019034;28;20585;-47
2022/09/01 02:01:55;;;;;;;4.53;1.50;;;;;;;;;;5018912;28;20520;-48
2022/09/01 02:04:22;;;;;;;3.03;1.85;;;;;;;;;;5035401;28;20220;-48
2022/09/01 02:06:52;;;;;;;4.10;1.92;;;;;;;;;;5018233;28;20208;-49
2022/09/01 02:09:22;;;;;;;2.10;1.33;;;;;;;;;;5019093;28;20240;-48
2022/09/01 02:11:55;;;;;;;3.53;1.75;;;;;;;;;;5018825;28;20211;-46
2022/09/01 02:14:23;;;;;;;2.72;1.98;;;;;;;;;;5034988;28;20204;-49
2022/09/01 02:16:50;;;;;;;2.08;1.60;;;;;;;;;;5018648;28;20626;-48
2022/09/01 02:19:19;;;;;;;2.75;1.80;;;;;;;;;;5034937;28;20211;-46
2022/09/01 02:21:53;;;;;;;4.15;1.77;;;;;;;;;;5035316;28;20228;-48
2022/09/01 02:24:20;;;;;;;5.00;2.20;;;;;;;;;;5035892;28;20284;-49
2022/09/01 02:26:48;;;;;;;2.53;1.67;;;;;;;;;;5076383;28;20202;-46
2022/09/01 02:29:20;;;;;;;2.17;1.73;;;;;;;;;;5058819;28;20281;-46
2022/09/01 02:31:50;;;;;;;5.75;1.80;;;;;;;;;;5076633;28;20588;-46
2022/09/01 02:34:20;;;;;;;3.28;1.42;;;;;;;;;;5059408;28;20203;-46
2022/09/01 02:36:49;;;;;;;4.38;1.60;;;;;;;;;;5058847;28;20215;-47
2022/09/01 02:39:25;;;;;;;1.58;1.30;;;;;;;;;;5058883;28;20617;-48
2022/09/01 02:41:53;;;;;;;3.80;1.60;;;;;;;;;;5076254;28;20583;-47
2022/09/01 02:44:27;;;;;;;3.08;1.70;;;;;;;;;;5059002;28;20235;-47
2022/09/01 02:46:55;;;;;;;3.63;1.85;;;;;;;;;;5075445;28;20206;-46
2022/09/01 02:49:27;;;;;;;3.67;1.80;;;;;;;;;;5058824;28;20219;-46
2022/09/01 02:51:58;;;;;;;3.55;1.60;;;;;;;;;;5058555;28;20543;-46
2022/09/01 02:54:26;;;;;;;6.85;2.15;;;;;;;;;;5058535;28;20203;-46
2022/09/01 02:56:53;;;;;;;4.07;2.10;;;;;;;;;;5058990;28;20203;-46
2022/09/01 02:59:26;;;;;;;5.15;2.13;;;;;;;;;;5058397;28;20207;-46
2022/09/01 03:01:56;;;;;;;4.80;2.40;;;;;;;;;;5058467;28;20622;-46
2022/09/01 03:04:25;;;;;;;3.70;2.60;;;;;;;;;;5058365;28;20211;-47
2022/09/01 03:06:57;;;;;;;3.78;2.40;;;;;;;;;;5058136;28;20199;-48
2022/09/01 03:09:24;;;;;;;4.05;2.22;;;;;;;;;;5075865;28;20227;-47
2022/09/01 03:11:52;;;;;;;4.88;2.80;;;;;;;;;;5057829;28;20210;-46
2022/09/01 03:14:21;;;;;;;4.68;2.53;;;;;;;;;;5057645;28;20651;-46
2022/09/01 03:16:48;;;;;;;4.40;2.65;;;;;;;;;;5057568;28;20512;-46
2022/09/01 03:19:17;;;;;;;3.20;2.30;;;;;;;;;;5056924;28;20286;-47
2022/09/01 03:21:47;;;;;;;5.32;2.25;;;;;;;;;;5073261;28;20207;-46
2022/09/01 03:24:18;;;;;;;4.55;2.25;;;;;;;;;;5055970;28;20195;-47
2022/09/01 03:26:49;;;;;;;4.10;2.30;;;;;;;;;;5072436;28;20204;-46
2022/09/01 03:29:18;;;;;;;4.85;2.10;;;;;;;;;;5055669;28;20215;-47
2022/09/01 03:31:45;;;;;;;4.88;2.10;;;;;;;;;;5055938;28;20210;-46
2022/09/01 03:34:15;;;;;;;3.25;1.70;;;;;;;;;;5056009;28;20204;-46
2022/09/01 03:36:50;;;;;;;4.30;2.17;;;;;;;;;;5057094;28;20256;-46
2022/09/01 03:39:24;;;;;;;3.35;1.88;;;;;;;;;;5057245;28;20256;-46
2022/09/01 03:41:52;;;;;;;3.80;2.00;;;;;;;;;;5057200;28;20207;-46
2022/09/01 03:44:19;;;;;;;3.08;2.10;;;;;;;;;;5074586;28;20281;-46
2022/09/01 03:46:46;;;;;;;4.28;2.10;;;;;;;;;;5057387;28;20215;-46
2022/09/01 03:49:14;;;;;;;3.13;1.80;;;;;;;;;;5074814;28;20227;-47
2022/09/01 03:51:43;;;;;;;2.53;1.67;;;;;;;;;;5057212;28;20207;-46
2022/09/01 03:54:11;;;;;;;5.20;2.28;;;;;;;;;;5057066;28;20226;-48
2022/09/01 03:56:40;;;;;;;3.85;1.92;;;;;;;;;;5074491;28;20284;-46
2022/09/01 03:59:15;;;;;;;4.05;2.00;;;;;;;;;;5057262;28;20203;-47
2022/09/01 04:01:45;;;;;;;3.35;1.67;;;;;;;;;;5057151;28;20219;-46
2022/09/01 04:04:14;;;;;;;4.75;2.28;;;;;;;;;;5055138;28;20284;-48
2022/09/01 04:06:42;;;;;;;4.40;2.45;;;;;;;;;;5059397;28;20298;-47
2022/09/01 04:09:10;;;;;;;3.33;2.00;;;;;;;;;;5049502;28;20622;-50
2022/09/01 04:11:40;;;;;;;4.45;2.20;;;;;;;;;;5044802;28;20183;-46
2022/09/01 04:14:14;;;;;;;3.85;1.90;;;;;;;;;;5063226;28;20192;-47
2022/09/01 04:19:29;;;;;;;4.57;2.25;;;;;;;;;;5043179;28;20636;-48
2022/09/01 04:21:59;;;;;;;2.97;2.20;;;;;;;;;;5067422;28;20294;-47
2022/09/01 04:24:32;;;;;;;5.68;2.20;;;;;;;;;;5064341;28;20206;-48
2022/09/01 04:27:01;;;;;;;3.20;2.30;;;;;;;;;;5048579;28;20232;-48
2022/09/01 04:29:29;;;;;;;4.03;2.22;;;;;;;;;;5053276;28;20245;-47
2022/09/01 04:32:02;;;;;;;4.55;2.70;;;;;;;;;;5060048;28;20235;-50
2022/09/01 04:34:37;;;;;;;5.55;3.30;;;;;;;;;;5060578;28;20227;-47
2022/09/01 04:37:13;;;;;;;4.40;2.97;;;;;;;;;;5060249;28;20363;-47
2022/09/01 04:39:48;;;;;;;7.45;3.00;;;;;;;;;;5060216;28;20240;-47
2022/09/01 04:42:24;;;;;;;8.82;3.20;;;;;;;;;;5064210;28;20235;-47
2022/09/01 04:44:53;;;;;;;5.07;2.95;;;;;;;;;;5065206;28;20329;-46
2022/09/01 04:47:28;;;;;;;5.18;3.60;;;;;;;;;;5077512;28;20250;-46
2022/09/01 04:50:12;;;;;;;5.50;3.10;;;;;;;;;;5063267;28;20239;-47
2022/09/01 04:52:43;;;;;;;4.05;2.88;;;;;;;;;;5077602;28;20223;-46
2022/09/01 04:55:20;;;;;;;4.88;3.40;;;;;;;;;;5059487;28;20235;-46
2022/09/01 04:57:48;;;;;;;6.82;3.75;;;;;;;;;;5058884;28;20305;-46
2022/09/01 05:00:21;;;;;;;10.35;5.25;;;;;;;;;;5059799;28;20216;-46
2022/09/01 05:02:52;;;;;;;11.18;4.30;;;;;;;;;;5059768;28;20238;-47
2022/09/01 05:05:21;;;;;;;7.15;3.25;;;;;;;;;;5059888;28;20624;-48
2022/09/01 05:07:51;;;;;;;4.53;2.72;;;;;;;;;;5077331;28;20240;-48
2022/09/01 05:10:21;;;;;;;4.40;2.25;;;;;;;;;;5043076;28;20239;-49
2022/09/01 05:13:16;;;;;;;2.95;1.80;;;;;;;;;;5059478;28;20238;-47
2022/09/01 05:15:45;;;;;;;3.22;2.20;;;;;;;;;;5077149;28;20225;-47
2022/09/01 05:18:15;;;;;;;4.70;2.38;;;;;;;;;;5059218;28;20666;-47
2022/09/01 05:20:43;;;;;;;3.47;1.92;;;;;;;;;;5059772;28;20231;-46
2022/09/01 05:23:11;;;;;;;3.90;1.75;;;;;;;;;;5059452;28;20230;-49
2022/09/01 05:25:42;;;;;;;2.25;1.73;;;;;;;;;;5058783;28;20610;-46
2022/09/01 05:28:14;;;;;;;7.00;2.15;;;;;;;;;;5059336;28;20535;-47
2022/09/01 05:30:41;;;;;;;3.15;1.75;;;;;;;;;;5058800;28;20282;-47
2022/09/01 05:33:10;;;;;;;3.17;1.80;;;;;;;;;;5076353;28;20314;-46
2022/09/01 05:35:42;;;;;;;2.65;1.92;;;;;;;;;;5058718;28;20223;-50
2022/09/01 05:38:12;;;;;;;4.93;1.67;;;;;;;;;;5058914;28;20244;-46
2022/09/01 05:40:41;;;;;;;5.13;2.00;;;;;;;;;;5058058;28;20224;-47
2022/09/01 05:43:12;;;;;;;3.83;1.85;;;;;;;;;;5057822;28;20214;-52
2022/09/01 05:45:42;;;;;;;2.88;1.67;;;;;;;;;;5058580;28;20239;-47
2022/09/01 05:48:30;;;;;;;5.22;2.00;;;;;;;;;;5058565;28;20249;-46
2022/09/01 05:50:58;;;;;;;3.10;1.65;;;;;;;;;;5058984;28;20230;-46
2022/09/01 05:53:29;;;;;;;3.97;1.80;;;;;;;;;;5058314;28;20211;-46
2022/09/01 05:55:57;;;;;;;3.72;1.65;;;;;;;;;;5059197;28;20608;-48
2022/09/01 05:58:26;;;;;;;2.95;1.70;;;;;;;;;;5057986;28;20218;-46
2022/09/01 06:01:25;;;;;;;2.97;1.80;;;;;;;;;;5059370;28;20589;-47
2022/09/01 06:03:54;;;;;;;4.40;1.95;;;;;;;;;;5059312;28;20796;-48
2022/09/01 06:06:26;;;;;;;3.83;1.80;;;;;;;;;;5059562;28;20207;-46
2022/09/01 06:08:57;;;;;;;2.13;1.50;;;;;;;;;;5059442;28;20203;-46
2022/09/01 06:11:28;;;;;;;3.08;1.80;;;;;;;;;;5059428;28;20219;-46
2022/09/01 06:13:57;;;;;;;2.45;1.67;;;;;;;;;;5042835;28;20200;-46
2022/09/01 06:16:26;;;;;;;4.10;1.73;;;;;;;;;;5057502;28;20203;-47
2022/09/01 06:18:56;;;;;;;2.80;1.80;;;;;;;;;;5057437;28;20203;-47
2022/09/01 06:21:23;;;;;;;3.03;1.70;;;;;;;;;;5076111;28;20530;-47
2022/09/01 06:23:54;;;;;;;4.47;2.10;;;;;;;;;;5076412;28;20221;-47
2022/09/01 06:26:27;;;;;;;4.00;1.60;;;;;;;;;;5058994;28;20203;-46
2022/09/01 06:29:03;;;;;;;6.00;1.90;;;;;;;;;;5058015;28;20199;-47
2022/09/01 06:31:33;;;;;;;3.42;1.83;;;;;;;;;;5057087;28;20234;-46
2022/09/01 06:34:09;;;;;;;3.83;1.70;;;;;;;;;;5056927;28;20195;-46
2022/09/01 06:36:39;;;;;;;3.30;1.40;;;;;;;;;;5057077;28;20207;-46
2022/09/01 06:39:07;;;;;;;3.63;1.70;;;;;;;;;;5057848;28;20219;-48
2022/09/01 06:41:37;;;;;;;2.42;1.52;;;;;;;;;;5058733;28;20235;-46
2022/09/01 06:44:09;;;;;;;2.17;1.60;;;;;;;;;;5058236;28;20242;-47
2022/09/01 06:46:47;;;;;;;3.38;1.48;;;;;;;;;;5058673;28;20206;-46
2022/09/01 06:49:14;;;;;;;5.20;1.65;;;;;;;;;;5057852;28;20673;-46
2022/09/01 06:51:41;;;;;;;2.15;1.40;;;;;;;;;;5058181;28;20231;-46
2022/09/01 06:54:13;;;;;;;4.15;1.55;;;;;;;;;;5057085;28;20213;-46
2022/09/01 06:56:41;;;;;;;5.28;1.55;;;;;;;;;;5058663;28;20188;-47
2022/09/01 06:59:19;;;;;;;4.47;1.70;;;;;;;;;;5058062;28;20230;-46
2022/09/01 07:01:50;;;;;;;5.75;1.80;;;;;;;;;;5058155;28;20195;-46
2022/09/01 07:04:22;;;;;;;2.53;1.73;;;;;;;;;;5058328;28;20213;-46
2022/09/01 07:07:09;;;;;;;2.75;1.48;;;;;;;;;;5058670;28;20350;-47
2022/09/01 07:10:21;;;;;;;4.88;1.50;;;;;;;;;;5075599;28;20215;-46
2022/09/01 07:13:15;;;;;;;1.30;1.20;;;;;;;;;;5056346;28;20214;-47
2022/09/01 07:15:43;;;;;;;3.25;1.02;;;;;;;;;;5058198;28;20231;-47
2022/09/01 07:18:36;;;;;;;2.25;1.38;;;;;;;;;;5057303;28;20207;-46
2022/09/01 07:21:06;;;;;;;1.70;1.13;;;;;;;;;;5055832;28;20545;-47
2022/09/01 07:23:56;;;;;;;1.95;0.90;;;;;;;;;;5057533;28;20302;-49
2022/09/01 07:26:52;;;;;;;5.78;2.20;;;;;;;;;;5057842;28;20290;-46
2022/09/01 07:29:22;;;;;;;1.58;1.05;;;;;;;;;;5057561;28;20551;-47
2022/09/01 07:31:50;;;;;;;2.20;0.93;;;;;;;;;;5057765;28;20229;-46
2022/09/01 07:34:38;;;;;;;3.08;0.90;;;;;;;;;;5057853;28;20207;-46
2022/09/01 07:37:08;;;;;;;4.53;0.82;;;;;;;;;;5057998;28;20635;-46
2022/09/01 07:39:55;;;;;;;2.30;0.60;;;;;;;;;;5057807;28;20191;-46
2022/09/01 07:42:39;;;;;;;4.35;0.82;;;;;;;;;;5043475;28;20203;-46
2022/09/01 07:45:26;;;;;;;3.17;0.93;;;;;;;;;;5074566;28;20674;-46
2022/09/01 07:48:05;;;;;;;3.10;0.95;;;;;;;;;;5057419;28;20207;-47
2022/09/01 07:50:46;;;;;;;1.48;0.70;;;;;;;;;;5057816;28;20224;-46
2022/09/01 07:53:35;;;;;;;1.88;0.80;;;;;;;;;;5057743;28;20211;-47
2022/09/01 07:56:08;;;;;;;4.28;0.90;;;;;;;;;;5057414;28;20207;-48
2022/09/01 07:58:41;;;;;;;2.70;0.77;;;;;;;;;;5058026;28;20218;-46
2022/09/01 08:01:17;;;;;;;1.40;0.90;;;;;;;;;;5057657;28;20209;-47
2022/09/01 08:03:52;;;;;;;2.38;0.60;;;;;;;;;;5057472;28;20237;-46
2022/09/01 08:06:23;;;;;;;4.00;0.75;;;;;;;;;;5056737;28;20514;-47
2022/09/01 08:08:57;;;;;;;1.35;0.60;;;;;;;;;;5057438;28;20191;-47
2022/09/01 08:11:28;;;;;;;1.92;0.90;;;;;;;;;;5057404;28;20556;-47
2022/09/01 08:14:16;;;;;;;0.93;0.75;;;;;;;;;;5074689;28;20218;-48
2022/09/01 08:16:45;;;;;;;3.72;0.80;;;;;;;;;;5057012;28;20234;-51
2022/09/01 08:19:20;;;;;;;1.00;0.57;;;;;;;;;;5074767;28;20197;-47
2022/09/01 08:22:10;;;;;;;1.08;0.90;;;;;;;;;;5056732;28;20223;-50
2022/09/01 08:24:49;;;;;;;0.98;0.55;;;;;;;;;;5038453;28;20187;-53
2022/09/01 08:27:16;;;;;;;6.00;0.70;;;;;;;;;;5053867;28;20624;-56
2022/09/01 08:29:44;;;;;;;2.72;0.82;;;;;;;;;;5054940;28;20213;-56
2022/09/01 08:32:12;;;;;;;1.50;0.55;;;;;;;;;;5050200;28;20231;-56
2022/09/01 08:34:39;;;;;;;1.15;0.57;;;;;;;;;;5073494;28;20235;-55
2022/09/01 08:37:07;;;;;;;1.77;0.50;;;;;;;;;;5055932;28;20602;-55
2022/09/01 08:39:34;;;;;;;1.45;0.60;;;;;;;;;;5073039;28;20241;-54
2022/09/01 08:42:14;;;;;;;2.58;0.60;;;;;;;;;;5072036;28;20245;-56
2022/09/01 08:44:48;;;;;;;0.95;0.50;;;;;;;;;;5048992;28;20235;-55
2022/09/01 08:47:16;;;;;;;0.70;0.50;;;;;;;;;;5050350;28;20231;-56
2022/09/01 08:49:57;;;;;;;1.88;0.52;;;;;;;;;;5041490;28;20302;-56
2022/09/01 08:52:55;;;;;;;0.88;0.40;;;;;;;;;;5055966;28;20296;-55
2022/09/01 08:55:37;;;;;;;2.30;0.70;;;;;;;;;;5056103;28;20625;-55
2022/09/01 08:58:07;;;;;;;10.88;5.18;;;;;;;;;;5056409;28;20235;-55
2022/09/01 09:01:19;;;;;;;4.78;0.60;;;;;;;;;;5072271;28;20321;-52
2022/09/01 09:04:13;;;;;;;1.30;0.40;;;;;;;;;;5056335;28;20238;-56
2022/09/01 09:07:02;;;;;;;2.08;0.68;;;;;;;;;;5072460;28;20238;-54
2022/09/01 09:09:56;;;;;;;1.15;0.43;;;;;;;;;;5039059;28;20246;-56
2022/09/01 09:13:05;;;;;;;5.40;3.65;;;;;;;;;;5062962;28;20318;-56
2022/09/01 09:15:42;;;;;;;2.65;0.73;;;;;;;;;;5071381;28;20709;-52
2022/09/01 09:18:31;;;;;;;3.40;0.60;;;;;;;;;;5040104;28;20804;-55
2022/09/01 09:21:19;;;;;;;0.70;0.50;;;;;;;;;;5039853;28;20573;-56
2022/09/01 09:23:50;;;;;;;2.67;0.55;;;;;;;;;;5055953;28;20235;-55
2022/09/01 09:26:19;;;;;;;0.95;0.50;;;;;;;;;;5038692;28;20228;-54
2022/09/01 09:28:48;;;;;;;3.05;0.50;;;;;;;;;;5056323;28;20314;-54
2022/09/01 09:31:44;;;;;;;2.08;0.57;;;;;;;;;;5055570;28;20285;-53
2022/09/01 09:34:33;;;;;;;3.55;0.60;;;;;;;;;;5054157;28;20243;-56
2022/09/01 09:37:28;;;;;;;2.35;0.70;;;;;;;;;;5056510;28;20239;-52
2022/09/01 09:40:15;;;;;;;0.60;0.28;;;;;;;;;;5055409;28;20223;-49
2022/09/01 09:42:53;;;;;;;1.42;0.60;;;;;;;;;;5056240;28;20674;-50
2022/09/01 09:45:29;;;;;;;1.15;0.50;;;;;;;;;;5056348;28;20342;-55
2022/09/01 09:47:57;;;;;;;1.00;0.50;;;;;;;;;;5056040;28;20293;-53
2022/09/01 09:50:30;;;;;;;3.92;0.50;;;;;;;;;;5055374;28;20234;-54
2022/09/01 09:53:25;;;;;;;7.22;0.70;;;;;;;;;;5054603;28;20231;-47
2022/09/01 09:56:00;;;;;;;1.10;0.50;;;;;;;;;;5055395;28;20224;-54
2022/09/01 09:58:35;;;;;;;2.85;0.38;;;;;;;;;;5038475;28;20231;-51
2022/09/01 10:01:14;;;;;;;4.47;0.60;;;;;;;;;;5054392;28;20268;-56
2022/09/01 10:03:49;;;;;;;1.13;0.40;;;;;;;;;;5036893;28;20216;-55
2022/09/01 10:06:34;;;;;;;2.72;0.60;;;;;;;;;;5041513;28;20610;-48
2022/09/01 10:09:04;;;;;;;0.65;0.40;;;;;;;;;;5074496;28;20285;-54
2022/09/01 10:11:37;;;;;;;3.08;0.30;;;;;;;;;;5074212;28;20239;-52
2022/09/01 10:14:20;;;;;;;0.82;0.40;;;;;;;;;;5074927;28;20222;-55
2022/09/01 10:17:16;;;;;;;1.33;0.40;;;;;;;;;;5060962;28;20243;-54
2022/09/01 10:20:07;;;;;;;0.52;0.30;;;;;;;;;;5057395;28;20231;-56
2022/09/01 10:22:38;;;;;;;0.47;0.40;;;;;;;;;;5050222;28;20239;-54
2022/09/01 10:25:07;;;;;;;0.98;0.20;;;;;;;;;;5056157;28;20286;-55
2022/09/01 10:27:39;;;;;;;2.70;0.35;;;;;;;;;;5074003;28;20523;-54
2022/09/01 10:30:09;;;;;;;1.02;0.40;;;;;;;;;;5049103;28;20220;-57
2022/09/01 10:32:43;;;;;;;1.02;0.30;;;;;;;;;;5068999;28;20249;-53
2022/09/01 10:35:27;;;;;;;0.88;0.40;;;;;;;;;;5059283;28;20213;-55
2022/09/01 10:37:56;;;;;;;3.42;0.57;;;;;;;;;;5076124;28;20245;-55
2022/09/01 10:40:28;;;;;;;1.33;0.40;;;;;;;;;;5053834;28;20200;-55
2022/09/01 10:43:24;;;;;;;0.75;0.30;;;;;;;;;;5075836;28;20191;-54
2022/09/01 10:45:52;;;;;;;0.45;0.20;;;;;;;;;;5065233;28;20235;-56
2022/09/01 10:48:33;;;;;;;0.60;0.30;;;;;;;;;;5075686;28;20188;-55
2022/09/01 10:51:14;;;;;;;0.43;0.25;;;;;;;;;;5075029;28;20223;-56
2022/09/01 10:53:54;;;;;;;1.13;0.30;;;;;;;;;;5075802;28;20200;-56
2022/09/01 10:56:35;;;;;;;0.98;0.30;;;;;;;;;;5075184;28;20489;-56
2022/09/01 10:59:21;;;;;;;0.90;0.20;;;;;;;;;;5073868;28;20203;-56
2022/09/01 11:02:17;;;;;;;1.73;0.30;;;;;;;;;;5074401;28;20217;-55
2022/09/01 11:05:04;;;;;;;0.38;0.20;;;;;;;;;;5059159;28;20203;-55
2022/09/01 11:07:34;;;;;;;1.15;0.25;;;;;;;;;;5073680;28;20211;-56
2022/09/01 11:10:29;;;;;;;0.80;0.15;;;;;;;;;;5074349;28;20711;-54
2022/09/01 11:13:13;;;;;;;0.77;0.22;;;;;;;;;;5041303;28;20242;-55
2022/09/01 11:15:44;;;;;;;0.30;0.30;;;;;;;;;;5058176;28;20201;-57
2022/09/01 11:18:31;;;;;;;1.75;0.38;;;;;;;;;;5057763;28;20199;-55
2022/09/01 11:21:16;;;;;;;3.28;0.52;;;;;;;;;;5056026;28;20658;-56
2022/09/01 11:23:45;;;;;;;0.68;0.30;;;;;;;;;;5073472;28;20604;-56
2022/09/01 11:26:34;;;;;;;0.60;0.30;;;;;;;;;;5073264;28;20628;-56
2022/09/01 11:29:01;;;;;;;4.47;0.40;;;;;;;;;;5073870;28;20202;-54
2022/09/01 11:31:39;;;;;;;1.23;0.10;;;;;;;;;;5073575;28;20318;-56
2022/09/01 11:34:16;;;;;;;1.10;0.20;;;;;;;;;;5074020;28;20218;-55
2022/09/01 11:36:57;;;;;;;0.77;0.30;;;;;;;;;;5055802;28;20278;-57
2022/09/01 11:39:32;;;;;;;0.80;0.20;;;;;;;;;;5072965;28;20201;-54
2022/09/01 11:42:07;;;;;;;2.58;0.22;;;;;;;;;;5073852;28;20187;-56
2022/09/01 11:44:58;;;;;;;2.40;0.30;;;;;;;;;;5055428;28;20234;-56
2022/09/01 11:47:29;;;;;;;0.60;0.20;;;;;;;;;;5055124;28;20200;-56
2022/09/01 11:50:01;;;;;;;0.70;0.20;;;;;;;;;;5056455;28;20519;-55
2022/09/01 11:52:30;;;;;;;0.35;0.22;;;;;;;;;;5055669;28;20298;-57
2022/09/01 11:54:58;;;;;;;0.30;0.10;;;;;;;;;;5041459;28;20518;-54
2022/09/01 11:57:34;;;;;;;0.50;0.30;;;;;;;;;;5053661;28;20508;-55
2022/09/01 12:00:13;;;;;;;1.13;0.20;;;;;;;;;;5037370;28;20191;-55
2022/09/01 12:02:47;;;;;;;0.38;0.30;;;;;;;;;;5054134;28;20215;-57
2022/09/01 12:05:34;;;;;;;2.55;0.17;;;;;;;;;;5054326;28;20226;-55
2022/09/01 12:08:03;;;;;;;2.90;0.20;;;;;;;;;;5054691;28;20219;-56
2022/09/01 12:10:37;;;;;;;2.15;0.17;;;;;;;;;;5054220;28;20228;-55
2022/09/01 12:13:08;;;;;;;1.15;0.20;;;;;;;;;;5054220;28;20227;-56
2022/09/01 12:15:41;;;;;;;0.35;0.20;;;;;;;;;;5053990;28;20202;-55
2022/09/01 12:18:42;;;;;;;2.55;0.25;;;;;;;;;;5053374;28;20199;-55
2022/09/01 12:21:31;;;;;;;1.00;0.22;;;;;;;;;;5054113;28;20659;-56
2022/09/01 12:24:19;;;;;;;3.80;0.28;;;;;;;;;;5053341;28;20188;-55
2022/09/01 12:26:57;;;;;;;1.48;0.20;;;;;;;;;;5053055;28;20216;-55
2022/09/01 12:29:24;;;;;;;0.52;0.20;;;;;;;;;;5053134;28;20192;-56
2022/09/01 12:31:59;;;;;;;0.68;0.20;;;;;;;;;;5054243;28;20220;-56
2022/09/01 12:34:32;;;;;;;0.63;0.25;;;;;;;;;;5053292;28;20595;-57
2022/09/01 12:37:23;;;;;;;3.15;1.10;;;;;;;;;;5052803;28;20333;-56
2022/09/01 12:39:53;;;;;;;1.13;0.30;;;;;;;;;;5053302;28;20575;-56
2022/09/01 12:42:20;;;;;;;13.73;4.35;;;;;;;;;;5053272;28;20188;-56
2022/09/01 12:44:54;;;;;;;0.63;0.30;;;;;;;;;;5058215;28;20640;-56
2022/09/01 12:47:34;;;;;;;0.40;0.20;;;;;;;;;;5072101;28;20639;-56
2022/09/01 12:50:04;;;;;;;6.32;0.22;;;;;;;;;;5072635;28;20210;-54
2022/09/01 12:52:35;;;;;;;0.28;0.20;;;;;;;;;;5076120;28;20257;-56
2022/09/01 12:55:05;;;;;;;12.57;5.05;;;;;;;;;;5054750;28;20230;-56
2022/09/01 12:57:38;;;;;;;4.38;1.02;;;;;;;;;;5064894;28;20228;-57
2022/09/01 13:00:10;;;;;;;1.83;0.35;;;;;;;;;;5045645;28;20314;-56
2022/09/01 13:02:45;;;;;;;3.38;0.10;;;;;;;;;;5070296;28;20223;-57
2022/09/01 13:05:28;;;;;;;0.88;0.25;;;;;;;;;;5066277;28;20234;-55
2022/09/01 13:08:04;;;;;;;0.77;0.20;;;;;;;;;;5059368;28;20668;-55
2022/09/01 13:10:36;;;;;;;0.93;0.40;;;;;;;;;;5065651;28;20218;-55
2022/09/01 13:13:05;;;;;;;0.80;0.30;;;;;;;;;;5076972;28;20246;-56
2022/09/01 13:15:33;;;;;;;0.95;0.40;;;;;;;;;;5074973;28;20285;-54
2022/09/01 13:18:00;;;;;;;0.22;0.20;;;;;;;;;;5066337;28;20674;-54
2022/09/01 13:20:29;;;;;;;1.42;0.40;;;;;;;;;;5075599;28;20223;-55
2022/09/01 13:22:56;;;;;;;1.65;0.35;;;;;;;;;;5074196;28;20227;-55
2022/09/01 13:25:23;;;;;;;0.98;0.30;;;;;;;;;;5062816;28;20684;-54
2022/09/01 13:27:51;;;;;;;0.70;0.30;;;;;;;;;;5055210;28;20571;-55
2022/09/01 13:30:21;;;;;;;1.70;0.35;;;;;;;;;;5055894;28;20262;-56
2022/09/01 13:32:49;;;;;;;0.50;0.20;;;;;;;;;;5056690;28;20710;-56
2022/09/01 13:35:36;;;;;;;0.30;0.30;;;;;;;;;;5056355;28;20310;-56
2022/09/01 13:38:03;;;;;;;1.05;0.50;;;;;;;;;;5056271;28;20227;-56
2022/09/01 13:40:30;;;;;;;1.70;0.40;;;;;;;;;;5075574;28;20231;-57
2022/09/01 13:42:57;;;;;;;0.60;0.30;;;;;;;;;;5076207;28;20288;-58
2022/09/01 13:45:24;;;;;;;2.42;0.40;;;;;;;;;;5058605;28;20247;-57
2022/09/01 13:47:52;;;;;;;4.85;0.65;;;;;;;;;;5054569;28;20220;-55
2022/09/01 13:50:40;;;;;;;0.85;0.32;;;;;;;;;;5054477;28;20232;-54
2022/09/01 13:53:27;;;;;;;2.78;0.47;;;;;;;;;;5055513;28;20250;-53
2022/09/01 13:55:54;;;;;;;19.55;10.18;;;;;;;;;;5038295;28;20235;-54
2022/09/01 13:58:26;;;;;;;1.25;0.60;;;;;;;;;;5056326;28;21536;-55
2022/09/01 14:00:53;;;;;;;1.27;0.35;;;;;;;;;;5055679;28;20560;-54
2022/09/01 14:03:22;;;;;;;1.27;0.45;;;;;;;;;;5054952;28;20234;-55
2022/09/01 14:05:49;;;;;;;0.68;0.28;;;;;;;;;;5055715;28;20235;-54
2022/09/01 14:08:19;;;;;;;2.45;0.30;;;;;;;;;;5056013;28;20699;-54
2022/09/01 14:10:49;;;;;;;0.50;0.38;;;;;;;;;;5075167;28;20258;-56
2022/09/01 14:13:19;;;;;;;26.60;12.20;;;;;;;;;;5075265;28;20228;-55
2022/09/01 14:15:48;;;;;;;5.20;2.50;;;;;;;;;;5074541;28;20242;-54
2022/09/01 14:18:15;;;;;;;2.65;1.23;;;;;;;;;;5074896;28;20235;-55
2022/09/01 14:20:45;;;;;;;277.17;131.30;;;;;;;;;;5074847;28;20667;-56
2022/09/01 14:23:13;;;;;;;62.80;28.40;;;;;;;;;;5064034;28;20257;-56
2022/09/01 14:25:46;;;;;;;4.90;1.63;;;;;;;;;;5064808;28;20215;-56
2022/09/01 14:28:14;;;;;;;2.00;0.68;;;;;;;;;;5045830;28;20260;-57
2022/09/01 14:30:48;;;;;;;3.33;0.47;;;;;;;;;;5062547;28;20224;-55
2022/09/01 14:33:15;;;;;;;0.63;0.40;;;;;;;;;;5062822;28;20243;-55
2022/09/01 14:35:45;;;;;;;1.42;0.40;;;;;;;;;;5063335;28;20310;-50
2022/09/01 14:38:13;;;;;;;0.88;0.40;;;;;;;;;;5062505;28;20219;-50
2022/09/01 14:40:41;;;;;;;2.22;0.25;;;;;;;;;;5055445;28;20282;-52
2022/09/01 14:43:12;;;;;;;2.22;0.38;;;;;;;;;;5035946;28;20230;-53
2022/09/01 14:45:40;;;;;;;1.85;0.52;;;;;;;;;;5053641;28;20243;-47
2022/09/01 14:48:07;;;;;;;1.63;0.43;;;;;;;;;;5054485;28;20224;-51
2022/09/01 14:50:39;;;;;;;12.52;3.60;;;;;;;;;;5067577;28;20310;-55
2022/09/01 14:53:06;;;;;;;1.50;0.50;;;;;;;;;;5074477;28;20243;-51
2022/09/01 14:55:33;;;;;;;7.15;2.42;;;;;;;;;;5075453;28;20230;-45
2022/09/01 14:58:02;;;;;;;2.38;0.35;;;;;;;;;;5075663;28;20571;-46
2022/09/01 15:00:33;;;;;;;1.98;0.80;;;;;;;;;;5075599;28;20210;-46
2022/09/01 15:03:01;;;;;;;1.30;0.32;;;;;;;;;;5075665;28;20195;-47
2022/09/01 15:05:28;;;;;;;9.48;3.95;;;;;;;;;;5075731;28;20199;-48
2022/09/01 15:08:05;;;;;;;1.67;0.60;;;;;;;;;;5075516;28;20679;-46
2022/09/01 15:10:33;;;;;;;7.90;1.58;;;;;;;;;;5070507;28;20620;-48
2022/09/01 15:12:59;;;;;;;0.68;0.40;;;;;;;;;;5075590;28;20233;-48
2022/09/01 15:15:28;;;;;;;1.73;0.63;;;;;;;;;;5074393;28;20273;-48
2022/09/01 15:17:56;;;;;;;1.67;0.47;;;;;;;;;;5075192;28;20207;-46
2022/09/01 15:23:21;;;;;;;1.70;0.40;;;;;;;;;;5075218;28;20203;-47
2022/09/01 15:25:51;;;;;;;0.45;0.30;;;;;;;;;;5057936;28;20295;-50
2022/09/01 15:28:19;;;;;;;1.02;0.50;;;;;;;;;;5075115;28;20211;-47
2022/09/01 15:30:46;;;;;;;0.80;0.50;;;;;;;;;;5075001;28;20642;-48